Time;durP1;ratioP1;P1;durP2;ratioP2;P2;SDS_P1;SDS_P2;PMS_P1;PMS_P2;Temp;Humidity;BMP_temperature;BMP_pressure;BME280_temperature;BME280_humidity;BME280_pressure;Samples;Min_cycle;Max_cycle;Signal;HPM_P1;HPM_P2
2022/08/24 00:00:09;;;;;;;2.22;1.70;;;;;;;;;;7386689;19;20007;-72
2022/08/24 00:02:34;;;;;;;3.22;1.77;;;;;;;;;;7388650;19;20002;-71
2022/08/24 00:05:00;;;;;;;2.60;1.88;;;;;;;;;;7387266;19;20005;-72
2022/08/24 00:07:26;;;;;;;2.78;1.80;;;;;;;;;;7386922;19;20746;-72
2022/08/24 00:09:51;;;;;;;2.70;1.88;;;;;;;;;;7386397;19;20003;-71
2022/08/24 00:12:17;;;;;;;3.42;1.90;;;;;;;;;;7385265;19;20007;-71
2022/08/24 00:14:43;;;;;;;3.17;1.95;;;;;;;;;;7387581;19;20002;-71
2022/08/24 00:17:08;;;;;;;2.70;1.90;;;;;;;;;;7385877;19;20002;-71
2022/08/24 00:19:34;;;;;;;3.28;2.00;;;;;;;;;;7386947;19;20368;-70
2022/08/24 00:22:00;;;;;;;3.15;2.10;;;;;;;;;;7383609;19;19999;-70
2022/08/24 00:24:26;;;;;;;4.05;2.13;;;;;;;;;;7384148;19;20014;-70
2022/08/24 00:26:52;;;;;;;3.13;1.85;;;;;;;;;;7386910;19;20007;-70
2022/08/24 00:29:19;;;;;;;2.72;1.88;;;;;;;;;;7384728;19;20017;-70
2022/08/24 00:31:45;;;;;;;2.72;1.90;;;;;;;;;;7380568;19;20006;-70
2022/08/24 00:34:12;;;;;;;5.05;1.83;;;;;;;;;;7391262;19;20136;-72
2022/08/24 00:36:37;;;;;;;3.17;1.73;;;;;;;;;;7386414;19;20638;-70
2022/08/24 00:39:03;;;;;;;3.08;1.98;;;;;;;;;;7384409;19;19999;-71
2022/08/24 00:41:28;;;;;;;4.85;2.22;;;;;;;;;;7383854;19;20006;-71
2022/08/24 00:44:00;;;;;;;4.70;2.00;;;;;;;;;;7386242;19;19998;-71
2022/08/24 00:46:41;;;;;;;4.57;2.15;;;;;;;;;;7386273;19;20018;-71
2022/08/24 00:49:20;;;;;;;4.05;1.88;;;;;;;;;;7386261;19;20473;-71
2022/08/24 00:51:54;;;;;;;3.95;2.10;;;;;;;;;;7385638;19;20441;-71
2022/08/24 00:54:21;;;;;;;3.35;2.05;;;;;;;;;;7386481;19;20033;-71
2022/08/24 00:56:56;;;;;;;4.28;2.08;;;;;;;;;;7385534;19;19999;-71
2022/08/24 00:59:27;;;;;;;3.28;1.95;;;;;;;;;;7384456;19;20006;-71
2022/08/24 01:01:55;;;;;;;2.30;1.80;;;;;;;;;;7383093;19;20000;-71
2022/08/24 01:04:39;;;;;;;4.00;1.73;;;;;;;;;;7385390;19;20003;-71
2022/08/24 01:07:04;;;;;;;2.38;1.73;;;;;;;;;;7386146;19;20015;-71
2022/08/24 01:09:30;;;;;;;3.60;2.33;;;;;;;;;;7384893;19;19999;-71
2022/08/24 01:11:55;;;;;;;2.60;2.00;;;;;;;;;;7382228;19;20002;-71
2022/08/24 01:14:22;;;;;;;2.92;1.92;;;;;;;;;;7382839;19;20041;-71
2022/08/24 01:19:38;;;;;;;3.03;1.70;;;;;;;;;;7386009;19;20437;-71
2022/08/24 01:22:24;;;;;;;1.83;1.48;;;;;;;;;;7384739;19;20009;-71
2022/08/24 01:24:50;;;;;;;4.07;1.77;;;;;;;;;;7385322;19;20042;-71
2022/08/24 01:27:16;;;;;;;4.18;1.98;;;;;;;;;;7385977;19;20477;-71
2022/08/24 01:29:44;;;;;;;3.28;1.52;;;;;;;;;;7385056;19;20006;-71
2022/08/24 01:32:09;;;;;;;3.35;1.90;;;;;;;;;;7384893;19;20002;-71
2022/08/24 01:34:35;;;;;;;2.90;1.70;;;;;;;;;;7385836;19;20006;-72
2022/08/24 01:37:01;;;;;;;3.70;2.00;;;;;;;;;;7385482;19;20002;-71
2022/08/24 01:39:34;;;;;;;2.08;1.65;;;;;;;;;;7385139;19;20475;-71
2022/08/24 01:42:00;;;;;;;2.75;1.65;;;;;;;;;;7384530;19;19995;-70
2022/08/24 01:44:29;;;;;;;2.33;1.60;;;;;;;;;;7386024;19;20010;-71
2022/08/24 01:46:55;;;;;;;2.80;1.77;;;;;;;;;;7385713;19;19998;-71
2022/08/24 01:49:25;;;;;;;2.55;1.50;;;;;;;;;;7383717;19;20461;-70
2022/08/24 01:51:50;;;;;;;2.40;1.83;;;;;;;;;;7384122;19;20006;-71
2022/08/24 01:54:15;;;;;;;2.28;1.80;;;;;;;;;;7385095;19;20077;-70
2022/08/24 01:56:41;;;;;;;2.13;1.50;;;;;;;;;;7385219;19;20006;-71
2022/08/24 01:59:07;;;;;;;1.83;1.40;;;;;;;;;;7383376;19;20063;-70
2022/08/24 02:01:37;;;;;;;2.78;1.70;;;;;;;;;;7384140;19;20341;-70
2022/08/24 02:04:05;;;;;;;2.07;1.53;;;;;;;;;;7384691;19;20033;-70
2022/08/24 02:06:31;;;;;;;1.75;1.42;;;;;;;;;;7387616;19;20009;-70
2022/08/24 02:08:57;;;;;;;4.05;1.38;;;;;;;;;;7387548;19;20103;-70
2022/08/24 02:11:22;;;;;;;2.28;1.42;;;;;;;;;;7388981;19;20026;-71
2022/08/24 02:13:48;;;;;;;2.25;1.63;;;;;;;;;;7391422;19;20006;-70
2022/08/24 02:16:13;;;;;;;1.85;1.30;;;;;;;;;;7391573;19;20009;-70
2022/08/24 02:18:39;;;;;;;2.90;1.90;;;;;;;;;;7392123;19;20006;-71
2022/08/24 02:21:07;;;;;;;3.22;1.52;;;;;;;;;;7387586;19;20034;-71
2022/08/24 02:23:33;;;;;;;2.13;1.30;;;;;;;;;;7389290;19;20145;-71
2022/08/24 02:25:58;;;;;;;3.17;1.83;;;;;;;;;;7388545;19;20120;-71
2022/08/24 02:28:24;;;;;;;2.53;1.50;;;;;;;;;;7390925;19;20033;-70
2022/08/24 02:30:49;;;;;;;3.33;1.40;;;;;;;;;;7388064;19;20005;-71
2022/08/24 02:33:15;;;;;;;3.90;1.63;;;;;;;;;;7390971;19;20041;-70
2022/08/24 02:35:41;;;;;;;2.35;1.45;;;;;;;;;;7390512;19;19998;-71
2022/08/24 02:38:08;;;;;;;1.70;1.55;;;;;;;;;;7390714;19;20002;-70
2022/08/24 02:40:33;;;;;;;1.52;1.38;;;;;;;;;;7387937;19;20003;-70
2022/08/24 02:42:58;;;;;;;1.40;1.30;;;;;;;;;;7393490;19;20024;-71
2022/08/24 02:45:24;;;;;;;1.25;1.15;;;;;;;;;;7386776;19;20063;-71
2022/08/24 02:47:49;;;;;;;2.67;1.52;;;;;;;;;;7390324;19;20504;-71
2022/08/24 02:50:16;;;;;;;1.90;1.50;;;;;;;;;;7386073;19;20003;-71
2022/08/24 02:52:42;;;;;;;1.88;1.25;;;;;;;;;;7390217;19;20390;-71
2022/08/24 02:55:13;;;;;;;2.67;1.38;;;;;;;;;;7393262;19;20322;-71
2022/08/24 02:57:38;;;;;;;2.17;1.60;;;;;;;;;;7388020;19;20003;-72
2022/08/24 03:00:07;;;;;;;1.77;1.42;;;;;;;;;;7388851;19;20003;-71
2022/08/24 03:02:32;;;;;;;2.20;1.50;;;;;;;;;;7388452;19;20373;-71
2022/08/24 03:04:58;;;;;;;4.20;1.60;;;;;;;;;;7388416;19;20011;-70
2022/08/24 03:07:23;;;;;;;1.92;1.20;;;;;;;;;;7388159;19;19998;-72
2022/08/24 03:09:48;;;;;;;3.10;1.52;;;;;;;;;;7388614;19;20016;-71
2022/08/24 03:12:14;;;;;;;2.22;1.50;;;;;;;;;;7388093;19;20020;-71
2022/08/24 03:14:40;;;;;;;2.70;1.67;;;;;;;;;;7389625;19;20010;-71
2022/08/24 03:17:06;;;;;;;4.28;1.83;;;;;;;;;;7391397;19;20314;-70
2022/08/24 03:19:32;;;;;;;5.25;2.75;;;;;;;;;;7388067;19;20010;-70
2022/08/24 03:21:57;;;;;;;8.85;5.05;;;;;;;;;;7387888;19;20006;-71
2022/08/24 03:24:22;;;;;;;4.28;2.38;;;;;;;;;;7388601;19;20002;-70
2022/08/24 03:26:49;;;;;;;3.13;1.70;;;;;;;;;;7388774;19;20006;-70
2022/08/24 03:29:15;;;;;;;2.38;1.45;;;;;;;;;;7387523;19;20066;-70
2022/08/24 03:31:40;;;;;;;1.80;1.40;;;;;;;;;;7388435;19;20331;-72
2022/08/24 03:34:06;;;;;;;1.50;1.33;;;;;;;;;;7391329;19;19999;-70
2022/08/24 03:36:31;;;;;;;1.45;1.35;;;;;;;;;;7388005;19;19994;-71
2022/08/24 03:38:57;;;;;;;1.98;1.48;;;;;;;;;;7393079;19;19998;-72
2022/08/24 03:41:22;;;;;;;1.85;1.40;;;;;;;;;;7387476;19;20006;-71
2022/08/24 03:43:48;;;;;;;3.78;2.08;;;;;;;;;;7388555;19;20014;-71
2022/08/24 03:46:27;;;;;;;11.02;5.97;;;;;;;;;;7388558;19;19995;-70
2022/08/24 03:48:55;;;;;;;3.95;2.25;;;;;;;;;;7390173;19;20007;-71
2022/08/24 03:51:22;;;;;;;2.75;1.50;;;;;;;;;;7385325;19;20003;-70
2022/08/24 03:53:48;;;;;;;1.40;1.30;;;;;;;;;;7389769;19;20025;-70
2022/08/24 03:56:13;;;;;;;1.45;1.15;;;;;;;;;;7392014;19;20011;-70
2022/08/24 03:58:42;;;;;;;1.92;1.33;;;;;;;;;;7388757;19;20088;-72
2022/08/24 04:01:08;;;;;;;2.55;1.42;;;;;;;;;;7385283;19;20003;-72
2022/08/24 04:03:35;;;;;;;2.15;1.55;;;;;;;;;;7386242;19;20006;-72
2022/08/24 04:06:01;;;;;;;1.48;1.10;;;;;;;;;;7386024;19;19998;-72
2022/08/24 04:08:27;;;;;;;3.40;1.40;;;;;;;;;;7386125;19;20156;-74
2022/08/24 04:10:53;;;;;;;3.33;1.40;;;;;;;;;;7381133;19;20505;-73
2022/08/24 04:13:18;;;;;;;2.03;1.33;;;;;;;;;;7385723;19;20027;-73
2022/08/24 04:15:45;;;;;;;1.40;1.20;;;;;;;;;;7385499;19;20007;-73
2022/08/24 04:18:10;;;;;;;2.35;1.50;;;;;;;;;;7383500;19;20504;-74
2022/08/24 04:20:38;;;;;;;2.22;1.42;;;;;;;;;;7384766;19;20016;-74
2022/08/24 04:23:04;;;;;;;1.45;1.20;;;;;;;;;;7387706;19;20464;-73
2022/08/24 04:25:31;;;;;;;2.40;1.48;;;;;;;;;;7384503;19;20027;-73
2022/08/24 04:27:56;;;;;;;2.53;1.60;;;;;;;;;;7385207;19;20003;-73
2022/08/24 04:30:21;;;;;;;1.30;1.17;;;;;;;;;;7383148;19;20003;-73
2022/08/24 04:32:47;;;;;;;2.90;1.30;;;;;;;;;;7390492;19;20002;-73
2022/08/24 04:35:12;;;;;;;1.63;1.40;;;;;;;;;;7389365;19;20368;-73
2022/08/24 04:37:38;;;;;;;1.95;1.40;;;;;;;;;;7389935;19;19998;-72
2022/08/24 04:40:04;;;;;;;2.17;1.60;;;;;;;;;;7388208;19;19999;-72
2022/08/24 04:42:30;;;;;;;1.25;1.15;;;;;;;;;;7388427;19;19998;-74
2022/08/24 04:44:55;;;;;;;1.48;1.20;;;;;;;;;;7388620;19;20105;-74
2022/08/24 04:47:21;;;;;;;1.80;1.13;;;;;;;;;;7389200;19;19998;-73
2022/08/24 04:49:46;;;;;;;2.15;1.42;;;;;;;;;;7387753;19;20078;-74
2022/08/24 04:52:11;;;;;;;1.85;1.33;;;;;;;;;;7388059;19;20007;-74
2022/08/24 04:54:37;;;;;;;1.48;1.20;;;;;;;;;;7390154;19;20017;-74
2022/08/24 04:57:03;;;;;;;2.70;1.42;;;;;;;;;;7386749;19;20006;-74
2022/08/24 05:01:56;;;;;;;1.27;1.17;;;;;;;;;;7385941;19;20022;-76
2022/08/24 05:04:21;;;;;;;2.35;1.50;;;;;;;;;;7385687;19;20347;-77
2022/08/24 05:06:46;;;;;;;1.23;1.02;;;;;;;;;;7387017;19;19999;-76
2022/08/24 05:09:12;;;;;;;1.38;1.27;;;;;;;;;;7386187;19;20406;-77
2022/08/24 05:11:39;;;;;;;3.08;1.67;;;;;;;;;;7382964;19;20109;-77
2022/08/24 05:14:05;;;;;;;1.90;1.48;;;;;;;;;;7387799;19;20317;-76
2022/08/24 05:16:33;;;;;;;2.00;1.40;;;;;;;;;;7387452;19;20003;-77
2022/08/24 05:18:59;;;;;;;1.40;1.30;;;;;;;;;;7387197;19;20110;-77
2022/08/24 05:21:24;;;;;;;2.35;1.38;;;;;;;;;;7382846;19;20329;-76
2022/08/24 05:23:50;;;;;;;1.67;1.17;;;;;;;;;;7388096;19;20019;-77
2022/08/24 05:26:24;;;;;;;1.30;1.20;;;;;;;;;;7383182;19;20003;-76
2022/08/24 05:28:56;;;;;;;2.70;1.40;;;;;;;;;;7384952;19;20406;-77
2022/08/24 05:31:26;;;;;;;3.58;1.40;;;;;;;;;;7382467;19;20002;-77
2022/08/24 05:33:51;;;;;;;1.80;1.40;;;;;;;;;;7385329;19;20010;-78
2022/08/24 05:36:23;;;;;;;4.80;1.70;;;;;;;;;;7387042;19;20003;-76
2022/08/24 05:38:50;;;;;;;1.60;1.30;;;;;;;;;;7387086;19;20341;-77
2022/08/24 05:41:16;;;;;;;2.85;1.35;;;;;;;;;;7384123;19;20353;-77
2022/08/24 05:43:42;;;;;;;3.47;1.58;;;;;;;;;;7391080;19;20038;-76
2022/08/24 05:46:07;;;;;;;2.85;1.38;;;;;;;;;;7391440;19;19998;-73
2022/08/24 05:48:36;;;;;;;1.75;1.38;;;;;;;;;;7391819;19;20070;-72
2022/08/24 05:51:02;;;;;;;1.88;1.33;;;;;;;;;;7390164;19;20006;-73
2022/08/24 05:53:28;;;;;;;1.75;1.38;;;;;;;;;;7392510;19;20010;-73
2022/08/24 05:55:53;;;;;;;1.33;1.23;;;;;;;;;;7395534;19;20480;-73
2022/08/24 05:58:19;;;;;;;1.35;1.25;;;;;;;;;;7397287;19;20456;-72
2022/08/24 06:00:45;;;;;;;2.42;1.52;;;;;;;;;;7392137;19;20539;-72
2022/08/24 06:03:12;;;;;;;1.42;1.13;;;;;;;;;;7395091;19;20019;-72
2022/08/24 06:05:40;;;;;;;2.28;1.50;;;;;;;;;;7394292;19;20013;-72
2022/08/24 06:08:05;;;;;;;3.03;1.27;;;;;;;;;;7397403;19;20058;-73
2022/08/24 06:10:31;;;;;;;1.20;1.02;;;;;;;;;;7392794;19;20011;-72
2022/08/24 06:12:57;;;;;;;2.05;1.35;;;;;;;;;;7395162;19;20014;-72
2022/08/24 06:15:22;;;;;;;1.83;1.40;;;;;;;;;;7395664;19;20022;-72
2022/08/24 06:17:49;;;;;;;2.30;1.35;;;;;;;;;;7394709;19;20026;-73
2022/08/24 06:20:14;;;;;;;1.85;1.42;;;;;;;;;;7396557;19;20015;-72
2022/08/24 06:22:42;;;;;;;1.45;1.33;;;;;;;;;;7393177;19;20471;-73
2022/08/24 06:27:52;;;;;;;1.65;1.20;;;;;;;;;;7396437;19;20019;-73
2022/08/24 06:30:17;;;;;;;1.50;1.30;;;;;;;;;;7394859;19;20062;-73
2022/08/24 06:32:42;;;;;;;1.65;1.38;;;;;;;;;;7393472;19;20520;-73
2022/08/24 06:35:08;;;;;;;2.70;1.42;;;;;;;;;;7394641;19;20084;-72
2022/08/24 06:37:34;;;;;;;2.42;1.40;;;;;;;;;;7393371;19;20002;-73
2022/08/24 06:39:59;;;;;;;1.48;1.23;;;;;;;;;;7395062;19;20573;-74
2022/08/24 06:42:25;;;;;;;1.70;1.30;;;;;;;;;;7393909;19;19998;-73
2022/08/24 06:44:51;;;;;;;1.77;1.20;;;;;;;;;;7393275;19;20002;-73
2022/08/24 06:47:17;;;;;;;2.40;1.60;;;;;;;;;;7393902;19;20409;-72
2022/08/24 06:49:42;;;;;;;2.42;1.35;;;;;;;;;;7400059;19;19999;-76
2022/08/24 06:52:10;;;;;;;1.70;1.48;;;;;;;;;;7402392;19;20021;-72
2022/08/24 06:54:36;;;;;;;1.95;1.20;;;;;;;;;;7394962;19;19999;-73
2022/08/24 06:57:01;;;;;;;4.10;1.50;;;;;;;;;;7393978;19;20005;-73
2022/08/24 06:59:27;;;;;;;3.30;1.92;;;;;;;;;;7391932;19;20037;-73
2022/08/24 07:01:54;;;;;;;2.58;1.40;;;;;;;;;;7393951;19;19999;-73
2022/08/24 07:04:21;;;;;;;2.67;1.45;;;;;;;;;;7394513;19;20002;-73
2022/08/24 07:06:46;;;;;;;1.40;1.30;;;;;;;;;;7392705;19;19999;-73
2022/08/24 07:09:12;;;;;;;1.95;1.30;;;;;;;;;;7393659;19;20042;-73
2022/08/24 07:11:37;;;;;;;1.30;1.20;;;;;;;;;;7391140;19;20006;-74
2022/08/24 07:14:03;;;;;;;1.42;1.13;;;;;;;;;;7394710;19;20701;-73
2022/08/24 07:16:28;;;;;;;2.35;1.27;;;;;;;;;;7393503;19;20069;-73
2022/08/24 07:18:53;;;;;;;5.28;1.40;;;;;;;;;;7392233;19;20002;-73
2022/08/24 07:21:19;;;;;;;2.92;1.27;;;;;;;;;;7389716;19;19999;-73
2022/08/24 07:23:46;;;;;;;1.30;1.20;;;;;;;;;;7393249;19;19999;-73
2022/08/24 07:26:17;;;;;;;1.58;1.40;;;;;;;;;;7392350;19;20014;-72
2022/08/24 07:29:05;;;;;;;2.75;1.60;;;;;;;;;;7391572;19;20002;-74
2022/08/24 07:31:38;;;;;;;1.88;1.50;;;;;;;;;;7383337;19;20035;-73
2022/08/24 07:34:50;;;;;;;2.88;1.65;;;;;;;;;;7393799;19;20002;-74
2022/08/24 07:37:16;;;;;;;1.50;1.33;;;;;;;;;;7389451;19;19998;-74
2022/08/24 07:39:41;;;;;;;2.03;1.40;;;;;;;;;;7390227;19;20001;-73
2022/08/24 07:42:07;;;;;;;1.73;1.35;;;;;;;;;;7392455;19;20009;-74
2022/08/24 07:44:32;;;;;;;3.38;1.42;;;;;;;;;;7389651;19;20455;-74
2022/08/24 07:46:58;;;;;;;1.50;1.27;;;;;;;;;;7390800;19;19991;-73
2022/08/24 07:49:23;;;;;;;2.50;1.52;;;;;;;;;;7391828;19;19995;-72
2022/08/24 07:51:52;;;;;;;2.65;1.48;;;;;;;;;;7390040;19;20548;-73
2022/08/24 07:54:19;;;;;;;4.35;1.40;;;;;;;;;;7389364;19;20077;-74
2022/08/24 07:56:45;;;;;;;2.40;1.40;;;;;;;;;;7392569;19;20062;-74
2022/08/24 07:59:13;;;;;;;1.63;1.50;;;;;;;;;;7390099;19;20062;-74
2022/08/24 08:01:39;;;;;;;2.22;1.52;;;;;;;;;;7387613;19;20001;-73
2022/08/24 08:04:05;;;;;;;1.75;1.50;;;;;;;;;;7392461;19;20058;-73
2022/08/24 08:06:30;;;;;;;2.58;1.45;;;;;;;;;;7388743;19;19995;-73
2022/08/24 08:08:55;;;;;;;1.83;1.55;;;;;;;;;;7391243;19;20040;-74
2022/08/24 08:11:21;;;;;;;2.25;1.40;;;;;;;;;;7389379;19;20058;-74
2022/08/24 08:13:47;;;;;;;3.63;1.42;;;;;;;;;;7392860;19;19999;-73
2022/08/24 08:16:12;;;;;;;2.00;1.58;;;;;;;;;;7393515;19;20006;-74
2022/08/24 08:18:38;;;;;;;2.08;1.42;;;;;;;;;;7390518;19;20003;-73
2022/08/24 08:21:05;;;;;;;2.28;1.42;;;;;;;;;;7388404;19;20033;-73
2022/08/24 08:26:19;;;;;;;3.60;1.60;;;;;;;;;;7392084;19;20074;-74
2022/08/24 08:28:45;;;;;;;1.50;1.40;;;;;;;;;;7390265;19;20012;-74
2022/08/24 08:31:11;;;;;;;1.80;1.40;;;;;;;;;;7388529;19;20460;-73
2022/08/24 08:33:36;;;;;;;1.52;1.30;;;;;;;;;;7392882;19;19998;-72
2022/08/24 08:36:12;;;;;;;2.55;1.48;;;;;;;;;;7391759;19;20325;-73
2022/08/24 08:38:38;;;;;;;2.20;1.27;;;;;;;;;;7390978;19;20438;-73
2022/08/24 08:41:16;;;;;;;3.05;1.60;;;;;;;;;;7388144;19;20005;-73
2022/08/24 08:44:04;;;;;;;1.63;1.50;;;;;;;;;;7391779;19;20547;-73
2022/08/24 08:46:49;;;;;;;3.50;1.50;;;;;;;;;;7387567;19;19995;-74
2022/08/24 08:49:58;;;;;;;1.58;1.30;;;;;;;;;;7391674;19;19995;-73
2022/08/24 08:53:06;;;;;;;1.70;1.40;;;;;;;;;;7391233;19;19996;-73
2022/08/24 08:55:37;;;;;;;1.80;1.40;;;;;;;;;;7390312;19;20393;-73
2022/08/24 08:58:38;;;;;;;2.83;1.45;;;;;;;;;;7390279;19;20002;-73
2022/08/24 09:01:23;;;;;;;1.50;1.30;;;;;;;;;;7385271;19;20101;-72
2022/08/24 09:04:03;;;;;;;2.03;1.55;;;;;;;;;;7390820;19;20023;-72
2022/08/24 09:06:48;;;;;;;2.60;1.70;;;;;;;;;;7388089;19;20503;-73
2022/08/24 09:09:45;;;;;;;3.58;1.42;;;;;;;;;;7390040;19;20026;-74
2022/08/24 09:12:50;;;;;;;1.80;1.42;;;;;;;;;;7389839;19;20046;-73
2022/08/24 09:15:38;;;;;;;1.90;1.33;;;;;;;;;;7390609;19;20002;-74
2022/08/24 09:18:09;;;;;;;1.40;1.30;;;;;;;;;;7394893;19;20028;-75
2022/08/24 09:20:41;;;;;;;1.50;1.23;;;;;;;;;;7397017;19;20116;-75
2022/08/24 09:23:31;;;;;;;2.33;1.33;;;;;;;;;;7395511;19;20006;-75
2022/08/24 09:26:08;;;;;;;1.98;1.30;;;;;;;;;;7394880;19;20061;-75
2022/08/24 09:29:11;;;;;;;1.27;1.17;;;;;;;;;;7394408;19;20347;-73
2022/08/24 09:31:56;;;;;;;1.70;1.30;;;;;;;;;;7392313;19;20006;-73
2022/08/24 09:34:24;;;;;;;1.48;1.30;;;;;;;;;;7397805;19;20020;-74
2022/08/24 09:37:17;;;;;;;1.33;1.20;;;;;;;;;;7395564;19;20021;-74
2022/08/24 09:39:57;;;;;;;1.40;1.30;;;;;;;;;;7396046;19;20002;-74
2022/08/24 09:42:51;;;;;;;3.50;1.77;;;;;;;;;;7396859;19;19999;-74
2022/08/24 09:45:47;;;;;;;2.03;1.38;;;;;;;;;;7394212;19;20034;-75
2022/08/24 09:48:31;;;;;;;1.35;1.23;;;;;;;;;;7396801;19;20006;-74
2022/08/24 09:51:00;;;;;;;2.05;1.50;;;;;;;;;;7392359;19;20023;-73
2022/08/24 09:53:42;;;;;;;2.10;1.23;;;;;;;;;;7395836;19;20025;-74
2022/08/24 09:56:19;;;;;;;1.58;1.38;;;;;;;;;;7397461;19;20003;-74
2022/08/24 09:59:13;;;;;;;3.95;1.35;;;;;;;;;;7395130;19;19998;-74
2022/08/24 10:02:10;;;;;;;1.90;1.42;;;;;;;;;;7391615;19;20003;-74
2022/08/24 10:05:01;;;;;;;2.05;1.30;;;;;;;;;;7393582;19;20015;-74
2022/08/24 10:07:38;;;;;;;1.35;1.25;;;;;;;;;;7391747;19;19998;-75
2022/08/24 10:10:24;;;;;;;1.77;1.38;;;;;;;;;;7394082;19;20006;-74
2022/08/24 10:12:58;;;;;;;1.30;1.20;;;;;;;;;;7392480;19;20058;-74
2022/08/24 10:15:37;;;;;;;1.42;1.33;;;;;;;;;;7395828;19;20493;-74
2022/08/24 10:18:08;;;;;;;1.95;1.30;;;;;;;;;;7396427;19;20006;-74
2022/08/24 10:20:48;;;;;;;2.72;1.65;;;;;;;;;;7392829;19;20006;-74
2022/08/24 10:23:28;;;;;;;1.30;1.20;;;;;;;;;;7393863;19;19999;-74
2022/08/24 10:26:38;;;;;;;2.25;1.45;;;;;;;;;;7394537;19;20019;-73
2022/08/24 10:29:43;;;;;;;2.13;1.45;;;;;;;;;;7392732;19;20013;-74
2022/08/24 10:32:42;;;;;;;2.88;1.52;;;;;;;;;;7394458;19;20366;-75
2022/08/24 10:35:17;;;;;;;2.53;1.60;;;;;;;;;;7394041;19;20013;-74
2022/08/24 10:41:31;;;;;;;1.92;1.40;;;;;;;;;;7395365;19;20008;-74
2022/08/24 10:44:18;;;;;;;1.50;1.40;;;;;;;;;;7391743;19;19999;-75
2022/08/24 10:46:51;;;;;;;3.05;1.30;;;;;;;;;;7390971;19;19999;-75
2022/08/24 10:49:35;;;;;;;1.63;1.33;;;;;;;;;;7395746;19;20010;-74
2022/08/24 10:52:13;;;;;;;1.67;1.42;;;;;;;;;;7394390;19;20010;-74
2022/08/24 10:54:39;;;;;;;2.28;1.35;;;;;;;;;;7395583;19;20006;-74
2022/08/24 10:57:11;;;;;;;1.55;1.27;;;;;;;;;;7393533;19;20017;-75
2022/08/24 10:59:42;;;;;;;1.55;1.30;;;;;;;;;;7394819;19;20017;-73
2022/08/24 11:02:26;;;;;;;1.70;1.50;;;;;;;;;;7393335;19;20009;-73
2022/08/24 11:04:57;;;;;;;1.52;1.42;;;;;;;;;;7389552;19;20071;-74
2022/08/24 11:07:22;;;;;;;2.13;1.38;;;;;;;;;;7392943;19;20006;-74
2022/08/24 11:09:52;;;;;;;2.65;1.40;;;;;;;;;;7391209;19;20495;-73
2022/08/24 11:12:31;;;;;;;2.47;1.55;;;;;;;;;;7394059;19;20002;-74
2022/08/24 11:15:29;;;;;;;1.85;1.23;;;;;;;;;;7392089;19;20362;-75
2022/08/24 11:18:05;;;;;;;1.42;1.33;;;;;;;;;;7393308;19;20006;-74
2022/08/24 11:20:43;;;;;;;1.85;1.58;;;;;;;;;;7388491;19;19999;-74
2022/08/24 11:23:19;;;;;;;1.63;1.30;;;;;;;;;;7390598;19;19999;-74
2022/08/24 11:26:10;;;;;;;1.83;1.45;;;;;;;;;;7392101;19;20713;-74
2022/08/24 11:28:39;;;;;;;2.85;1.40;;;;;;;;;;7392185;19;20009;-74
2022/08/24 11:31:19;;;;;;;1.48;1.38;;;;;;;;;;7389429;19;20003;-74
2022/08/24 11:33:49;;;;;;;;;;;;;;;;;;7394333;19;20501;-74
2022/08/24 11:36:18;;;;;;;2.47;1.30;;;;;;;;;;7393478;19;19919;-74
2022/08/24 11:38:45;;;;;;;1.92;1.40;;;;;;;;;;7388441;19;20019;-74
2022/08/24 11:41:31;;;;;;;2.03;1.40;;;;;;;;;;7389384;19;20460;-74
2022/08/24 11:44:07;;;;;;;1.50;1.40;;;;;;;;;;7393651;19;20058;-74
2022/08/24 11:47:01;;;;;;;1.55;1.38;;;;;;;;;;7392129;19;20014;-73
2022/08/24 11:49:41;;;;;;;1.63;1.40;;;;;;;;;;7394540;19;20014;-73
2022/08/24 11:52:14;;;;;;;1.25;1.17;;;;;;;;;;7408389;19;20005;-73
2022/08/24 11:55:02;;;;;;;1.55;1.25;;;;;;;;;;7407292;19;20006;-73
2022/08/24 11:57:40;;;;;;;1.60;1.48;;;;;;;;;;7396899;19;20009;-73
2022/08/24 12:00:14;;;;;;;2.20;1.35;;;;;;;;;;7393782;19;20074;-73
2022/08/24 12:03:21;;;;;;;1.52;1.30;;;;;;;;;;7392010;19;19998;-73
2022/08/24 12:06:05;;;;;;;1.63;1.40;;;;;;;;;;7391515;19;20039;-73
2022/08/24 12:08:48;;;;;;;3.63;1.50;;;;;;;;;;7390938;19;20002;-73
2022/08/24 12:11:45;;;;;;;2.80;1.20;;;;;;;;;;7389772;19;20006;-73
2022/08/24 12:14:21;;;;;;;1.63;1.27;;;;;;;;;;7393537;19;19999;-74
2022/08/24 12:16:53;;;;;;;2.20;1.40;;;;;;;;;;7389411;19;20003;-74
2022/08/24 12:19:22;;;;;;;1.95;1.40;;;;;;;;;;7391191;19;20006;-74
2022/08/24 12:21:53;;;;;;;1.50;1.40;;;;;;;;;;7391218;19;20002;-74
2022/08/24 12:24:37;;;;;;;2.55;1.50;;;;;;;;;;7393820;19;20002;-74
2022/08/24 12:27:28;;;;;;;2.95;1.42;;;;;;;;;;7391601;19;19999;-74
2022/08/24 12:30:26;;;;;;;1.65;1.27;;;;;;;;;;7391553;19;20006;-74
2022/08/24 12:32:59;;;;;;;1.85;1.55;;;;;;;;;;7386999;19;20019;-75
2022/08/24 12:35:33;;;;;;;2.05;1.40;;;;;;;;;;7389051;19;20490;-74
2022/08/24 12:38:06;;;;;;;2.47;1.23;;;;;;;;;;7391931;19;20817;-74
2022/08/24 12:40:43;;;;;;;1.65;1.27;;;;;;;;;;7392411;19;20083;-74
2022/08/24 12:43:22;;;;;;;1.55;1.40;;;;;;;;;;7387066;19;20007;-74
2022/08/24 12:45:48;;;;;;;2.08;1.42;;;;;;;;;;7389462;19;20002;-74
2022/08/24 12:48:32;;;;;;;2.50;1.50;;;;;;;;;;7391955;19;20003;-74
2022/08/24 12:51:27;;;;;;;2.70;1.52;;;;;;;;;;7388688;19;20076;-75
2022/08/24 12:54:26;;;;;;;1.67;1.40;;;;;;;;;;7391396;19;20007;-74
2022/08/24 12:57:24;;;;;;;1.38;1.23;;;;;;;;;;7389437;19;19999;-74
2022/08/24 12:59:55;;;;;;;1.42;1.30;;;;;;;;;;7389578;19;20444;-73
2022/08/24 13:02:20;;;;;;;1.38;1.27;;;;;;;;;;7390908;19;20007;-73
2022/08/24 13:04:48;;;;;;;1.30;1.20;;;;;;;;;;7388235;19;20010;-74
2022/08/24 13:07:22;;;;;;;1.90;1.55;;;;;;;;;;7389586;19;20243;-74
2022/08/24 13:09:51;;;;;;;1.92;1.50;;;;;;;;;;7390379;19;20410;-73
2022/08/24 13:12:31;;;;;;;2.70;1.67;;;;;;;;;;7390498;19;20009;-73
2022/08/24 13:15:29;;;;;;;2.65;1.15;;;;;;;;;;7387499;19;20337;-74
2022/08/24 13:17:59;;;;;;;1.80;1.40;;;;;;;;;;7386558;19;20014;-74
2022/08/24 13:20:49;;;;;;;1.45;1.35;;;;;;;;;;7390181;19;20002;-74
2022/08/24 13:23:20;;;;;;;1.27;1.10;;;;;;;;;;7387008;19;19998;-74
2022/08/24 13:25:45;;;;;;;1.50;1.40;;;;;;;;;;7386586;19;20046;-74
2022/08/24 13:28:19;;;;;;;2.37;1.30;;;;;;;;;;7390926;19;20055;-74
2022/08/24 13:31:01;;;;;;;1.30;1.20;;;;;;;;;;7387349;19;20335;-74
2022/08/24 13:33:37;;;;;;;2.13;1.42;;;;;;;;;;7387015;19;19999;-73
2022/08/24 13:36:31;;;;;;;1.67;1.38;;;;;;;;;;7390060;19;20014;-74
2022/08/24 13:39:49;;;;;;;4.03;1.60;;;;;;;;;;7388268;19;20044;-75
2022/08/24 13:42:26;;;;;;;1.63;1.50;;;;;;;;;;7386787;19;20002;-74
2022/08/24 13:45:09;;;;;;;1.65;1.35;;;;;;;;;;7387298;19;20501;-74
2022/08/24 13:47:47;;;;;;;2.28;1.40;;;;;;;;;;7389641;19;19995;-74
2022/08/24 13:50:31;;;;;;;1.88;1.17;;;;;;;;;;7388044;19;20140;-74
2022/08/24 13:53:22;;;;;;;1.92;1.50;;;;;;;;;;7386670;19;19999;-74
2022/08/24 13:55:54;;;;;;;1.35;1.17;;;;;;;;;;7389067;19;20006;-74
2022/08/24 13:58:41;;;;;;;1.65;1.40;;;;;;;;;;7390060;19;20019;-73
2022/08/24 14:01:29;;;;;;;1.75;1.45;;;;;;;;;;7387447;19;20002;-73
2022/08/24 14:04:12;;;;;;;1.48;1.38;;;;;;;;;;7391436;19;20426;-73
2022/08/24 14:06:49;;;;;;;1.75;1.27;;;;;;;;;;7395067;19;20006;-75
2022/08/24 14:09:39;;;;;;;2.33;1.38;;;;;;;;;;7396363;19;20010;-74
2022/08/24 14:12:37;;;;;;;1.98;1.48;;;;;;;;;;7396071;19;20010;-74
2022/08/24 14:15:41;;;;;;;4.78;1.52;;;;;;;;;;7395914;19;20023;-74
2022/08/24 14:18:21;;;;;;;2.15;1.60;;;;;;;;;;7393095;19;20005;-74
2022/08/24 14:21:09;;;;;;;3.50;1.50;;;;;;;;;;7393724;19;20357;-73
2022/08/24 14:24:00;;;;;;;1.35;1.20;;;;;;;;;;7395180;19;20006;-74
2022/08/24 14:26:32;;;;;;;3.17;1.40;;;;;;;;;;7394654;19;20032;-73
2022/08/24 14:29:16;;;;;;;1.80;1.40;;;;;;;;;;7395242;19;20036;-74
2022/08/24 14:31:53;;;;;;;2.38;1.30;;;;;;;;;;7392347;19;20436;-73
2022/08/24 14:34:58;;;;;;;5.40;1.30;;;;;;;;;;7397287;19;20066;-73
2022/08/24 14:37:36;;;;;;;1.83;1.40;;;;;;;;;;7395055;19;20003;-73
2022/08/24 14:40:19;;;;;;;1.75;1.38;;;;;;;;;;7395584;19;20019;-75
2022/08/24 14:42:58;;;;;;;2.30;1.60;;;;;;;;;;7393861;19;20012;-74
2022/08/24 14:45:52;;;;;;;2.17;1.33;;;;;;;;;;7395457;19;20015;-74
2022/08/24 14:48:46;;;;;;;2.05;1.60;;;;;;;;;;7395474;19;20074;-74
2022/08/24 14:51:30;;;;;;;2.80;1.58;;;;;;;;;;7392639;19;20007;-73
2022/08/24 14:54:37;;;;;;;1.73;1.48;;;;;;;;;;7395152;19;20479;-73
2022/08/24 14:57:31;;;;;;;2.38;1.40;;;;;;;;;;7392324;19;20002;-75
2022/08/24 15:00:12;;;;;;;2.60;1.50;;;;;;;;;;7394199;19;20014;-74
2022/08/24 15:02:49;;;;;;;1.88;1.40;;;;;;;;;;7391690;19;20014;-75
2022/08/24 15:05:30;;;;;;;1.45;1.30;;;;;;;;;;7392075;19;20002;-75
2022/08/24 15:07:58;;;;;;;1.83;1.40;;;;;;;;;;7394602;19;20038;-75
2022/08/24 15:10:35;;;;;;;2.13;1.65;;;;;;;;;;7392913;19;19995;-74
2022/08/24 15:13:06;;;;;;;1.73;1.42;;;;;;;;;;7391653;19;20002;-74
2022/08/24 15:15:39;;;;;;;1.70;1.27;;;;;;;;;;7391299;19;20058;-74
2022/08/24 15:18:20;;;;;;;2.67;1.40;;;;;;;;;;7394517;19;20003;-74
2022/08/24 15:21:08;;;;;;;3.08;1.30;;;;;;;;;;7390189;19;20013;-74
2022/08/24 15:24:00;;;;;;;2.30;1.58;;;;;;;;;;7392840;19;20088;-75
2022/08/24 15:26:56;;;;;;;1.55;1.40;;;;;;;;;;7392615;19;20028;-75
2022/08/24 15:29:29;;;;;;;1.65;1.38;;;;;;;;;;7393393;19;20808;-74
2022/08/24 15:32:10;;;;;;;7.70;1.48;;;;;;;;;;7393144;19;20024;-75
2022/08/24 15:34:49;;;;;;;3.50;1.83;;;;;;;;;;7391884;19;20386;-74